Fortune Amaryllis — VRDT3 — position and weather

sailwx.info

Track history (hours):
 
Tides and Currents Weather Stations Pressure Air Temp Water Temp Dewpoint Dewpoint Depression Visibility Wind Speed Wind Dir Waves Ship Positions

Fortune Amaryllis

Last reported at 2017-Feb-28 07:34 UTC. Time now 2017-Feb-28 07:41 UTC.
Position N 31°30' E 121°23'.

Length 175 m; draft 7.3 m.

Type: Cargo ship. MMSI: 477046800.

Date/timePositionNaut miles runAvg speedWind from/ knotsBaromVisibWave heightAir tempDewpointWater temp
2017-Feb-28 07:34N 31°30' E 121°23'6 6.0
2017-Feb-28 06:34N 31°27' E 121°29'10 9.8
2017-Feb-28 05:33N 31°22' E 121°38'1413.6
2017-Feb-28 04:33N 31°12' E 121°50'1414.1
2017-Feb-28 03:33N 31°05' E 122°04'1110.7
2017-Feb-28 02:33N 31°03' E 122°16'14 9.8
2017-Feb-28 01:08N 31°00' E 122°32'910.3
2017-Feb-28 00:14N 31°00' E 122°43'1 1.1
2017-Feb-27 23:33N 31°01' E 122°43'0 0.0
2017-Feb-27 22:33N 31°01' E 122°43'0 0.0
2017-Feb-27 21:33N 31°01' E 122°43'0 0.1
2017-Feb-27 20:33N 31°01' E 122°44'0 0.0
2017-Feb-27 19:33N 31°01' E 122°44'0 0.1
2017-Feb-27 18:05N 31°01' E 122°44'0 0.1
2017-Feb-27 17:33N 31°01' E 122°44'0 0.1
2017-Feb-27 16:33N 31°01' E 122°43'40010.4
2017-Feb-26 02:11N 37°41' E 122°44'1112.0
2017-Feb-26 01:14N 37°47' E 122°32'811.6
2017-Feb-26 00:31N 37°51' E 122°23'1111.2
2017-Feb-25 23:33N 37°57' E 122°12'1111.3
2017-Feb-25 22:33N 38°03' E 121°59'1211.4
2017-Feb-25 21:28N 38°10' E 121°46'1111.5
2017-Feb-25 20:31N 38°15' E 121°34'1111.6
2017-Feb-25 19:33N 38°20' E 121°22'1111.1
2017-Feb-25 18:33N 38°26' E 121°09'1010.3
2017-Feb-25 17:33N 38°31' E 120°58'1010.1
2017-Feb-25 16:33N 38°34' E 120°46'1010.0
2017-Feb-25 15:33N 38°36' E 120°33'  
2017-Feb-23 01:31N 38°38' E 120°36'1010.3
2017-Feb-23 00:33N 38°37' E 120°48'10 9.6
2017-Feb-22 23:33N 38°34' E 121°00'9 9.2
2017-Feb-22 22:33N 38°32' E 121°12'10 9.7
2017-Feb-22 21:33N 38°35' E 121°23'10 9.9
2017-Feb-22 20:33N 38°37' E 121°35'9 9.3
2017-Feb-22 19:33N 38°43' E 121°45'1211.4
2017-Feb-22 18:30N 38°55' E 121°46'6 5.7
2017-Feb-22 17:31N 39°01' E 121°45'0 0.0
2017-Feb-22 16:28N 39°01' E 121°45'0 0.0
2017-Feb-22 15:31N 39°01' E 121°45'0 0.0
2017-Feb-22 14:25N 39°01' E 121°45'0 0.0
2017-Feb-22 13:31N 39°01' E 121°45'0 0.0
2017-Feb-22 12:28N 39°01' E 121°45'0 0.0
2017-Feb-22 11:28N 39°01' E 121°45'0 0.0
2017-Feb-22 10:28N 39°01' E 121°45'0 0.0
2017-Feb-22 09:31N 39°01' E 121°45'0 0.0
2017-Feb-22 08:28N 39°01' E 121°45'0 0.0
2017-Feb-22 07:31N 39°01' E 121°45'0 0.0
2017-Feb-22 06:31N 39°01' E 121°45'0 0.0
2017-Feb-22 05:31N 39°01' E 121°45'0 0.0
2017-Feb-22 04:31N 39°01' E 121°45'0 0.0
2017-Feb-22 03:28N 39°01' E 121°45'0 0.0
2017-Feb-22 02:31N 39°01' E 121°45'0 0.0
2017-Feb-22 01:28N 39°01' E 121°45'0 0.0
2017-Feb-22 00:31N 39°01' E 121°45'0 0.0
2017-Feb-21 23:31N 39°01' E 121°45'0 0.0
2017-Feb-21 22:31N 39°01' E 121°45'0 0.0
2017-Feb-21 21:31N 39°01' E 121°45'0 0.0
2017-Feb-21 20:31N 39°01' E 121°45'0 0.0
2017-Feb-21 19:31N 39°01' E 121°45'0 0.0
2017-Feb-21 18:31N 39°01' E 121°45'0 0.0
2017-Feb-21 17:31N 39°01' E 121°45'0 0.0
2017-Feb-21 16:31N 39°01' E 121°45'0 0.0
2017-Feb-21 15:28N 39°01' E 121°45'0 0.0
2017-Feb-21 14:31N 39°01' E 121°45'0 0.0
2017-Feb-21 13:25N 39°01' E 121°45'0 0.0
2017-Feb-21 12:28N 39°01' E 121°45'0 0.0
2017-Feb-21 11:31N 39°01' E 121°45'0 0.0
2017-Feb-21 10:31N 39°01' E 121°45'0 0.0
2017-Feb-21 09:31N 39°01' E 121°45'0 0.0
2017-Feb-21 08:31N 39°01' E 121°45'0 0.0
2017-Feb-21 07:28N 39°01' E 121°45'0 0.0
2017-Feb-21 06:16N 39°01' E 121°45'0 0.0
2017-Feb-21 05:25N 39°01' E 121°45'0 0.0
2017-Feb-21 04:31N 39°01' E 121°45'0 0.0
2017-Feb-21 03:28N 39°01' E 121°45'0 0.0
2017-Feb-21 02:31N 39°01' E 121°45'0 0.0
2017-Feb-21 01:25N 39°01' E 121°45'0 0.0
2017-Feb-21 00:28N 39°01' E 121°45'0 0.0
2017-Feb-20 23:28N 39°01' E 121°45'0 0.0
2017-Feb-20 22:28N 39°01' E 121°45'0 0.0
2017-Feb-20 21:31N 39°01' E 121°45'0 0.0
2017-Feb-20 20:28N 39°01' E 121°45'0 0.0
2017-Feb-20 19:28N 39°01' E 121°45'0 0.0
2017-Feb-20 18:28N 39°01' E 121°45'0 0.0
2017-Feb-20 17:31N 39°01' E 121°45'0 0.0
2017-Feb-20 16:31N 39°01' E 121°45'0 0.0
2017-Feb-20 15:25N 39°01' E 121°45'0 0.0
2017-Feb-20 14:28N 39°01' E 121°45'0 0.0
2017-Feb-20 13:31N 39°01' E 121°45'0 0.0
2017-Feb-20 12:33N 39°01' E 121°45'7 6.4
2017-Feb-20 11:30N 38°54' E 121°47'6 6.6
2017-Feb-20 10:33N 38°51' E 121°54'6 5.9
2017-Feb-20 09:33N 38°52' E 122°01'0 0.0
2017-Feb-20 07:09N 38°52' E 122°01'0 0.0
2017-Feb-20 06:27N 38°52' E 122°01'0 0.0
2017-Feb-20 05:27N 38°52' E 122°01'0 0.0
2017-Feb-20 04:24N 38°52' E 122°01'0 0.0
2017-Feb-20 03:27N 38°52' E 122°01'0 0.1
2017-Feb-20 02:33N 38°52' E 122°01'0 0.0
2017-Feb-20 01:27N 38°52' E 122°01'0 0.0
2017-Feb-20 00:27N 38°52' E 122°01'0 0.0
2017-Feb-19 23:27N 38°52' E 122°01'0 0.0
2017-Feb-19 22:27N 38°52' E 122°01'0 0.1
2017-Feb-19 21:33N 38°52' E 122°01'0 0.0
2017-Feb-19 20:21N 38°52' E 122°01'0 0.0
2017-Feb-19 18:27N 38°52' E 122°01'0 0.1
2017-Feb-19 17:33N 38°52' E 122°01'0 0.0
2017-Feb-19 16:33N 38°52' E 122°01'0 0.0
2017-Feb-19 14:15N 38°52' E 122°01'0 0.0
2017-Feb-19 07:30N 38°52' E 122°01'0 0.0
2017-Feb-19 06:33N 38°52' E 122°01'0 0.0
2017-Feb-19 05:15N 38°52' E 122°01'0 0.0
2017-Feb-19 03:27N 38°52' E 122°01'0 0.0
2017-Feb-19 02:27N 38°52' E 122°01'0 0.1
2017-Feb-19 01:33N 38°52' E 122°01'0 0.0
2017-Feb-19 00:27N 38°52' E 122°01'0 0.0
2017-Feb-18 23:33N 38°52' E 122°01'0 0.0
2017-Feb-18 11:25N 38°52' E 122°01'0 0.0
2017-Feb-18 09:10N 38°52' E 122°01'0 0.1
2017-Feb-18 08:28N 38°52' E 122°01'  
Track history (hours):
 
Tides and Currents Weather Stations Pressure Air Temp Water Temp Dewpoint Dewpoint Depression Visibility Wind Speed Wind Dir Waves Ship Positions

Fortune Amaryllis

Last reported at 2017-Feb-28 07:34 UTC. Time now 2017-Feb-28 07:41 UTC.
Position N 31°30' E 121°23'.

Length 175 m; draft 7.3 m.

Type: Cargo ship. MMSI: 477046800.

Date/timePositionNaut miles runAvg speedWind from/ knotsBaromVisibWave heightAir tempDewpointWater temp
2017-Feb-28 07:34N 31°30' E 121°23'6 6.0
2017-Feb-28 06:34N 31°27' E 121°29'10 9.8
2017-Feb-28 05:33N 31°22' E 121°38'1413.6
2017-Feb-28 04:33N 31°12' E 121°50'1414.1
2017-Feb-28 03:33N 31°05' E 122°04'1110.7
2017-Feb-28 02:33N 31°03' E 122°16'14 9.8
2017-Feb-28 01:08N 31°00' E 122°32'910.3
2017-Feb-28 00:14N 31°00' E 122°43'1 1.1
2017-Feb-27 23:33N 31°01' E 122°43'0 0.0
2017-Feb-27 22:33N 31°01' E 122°43'0 0.0
2017-Feb-27 21:33N 31°01' E 122°43'0 0.1
2017-Feb-27 20:33N 31°01' E 122°44'0 0.0
2017-Feb-27 19:33N 31°01' E 122°44'0 0.1
2017-Feb-27 18:05N 31°01' E 122°44'0 0.1
2017-Feb-27 17:33N 31°01' E 122°44'0 0.1
2017-Feb-27 16:33N 31°01' E 122°43'40010.4
2017-Feb-26 02:11N 37°41' E 122°44'1112.0
2017-Feb-26 01:14N 37°47' E 122°32'811.6
2017-Feb-26 00:31N 37°51' E 122°23'1111.2
2017-Feb-25 23:33N 37°57' E 122°12'1111.3
2017-Feb-25 22:33N 38°03' E 121°59'1211.4
2017-Feb-25 21:28N 38°10' E 121°46'1111.5
2017-Feb-25 20:31N 38°15' E 121°34'1111.6
2017-Feb-25 19:33N 38°20' E 121°22'1111.1
2017-Feb-25 18:33N 38°26' E 121°09'1010.3
2017-Feb-25 17:33N 38°31' E 120°58'1010.1
2017-Feb-25 16:33N 38°34' E 120°46'1010.0
2017-Feb-25 15:33N 38°36' E 120°33'  
2017-Feb-23 01:31N 38°38' E 120°36'1010.3
2017-Feb-23 00:33N 38°37' E 120°48'10 9.6
2017-Feb-22 23:33N 38°34' E 121°00'9 9.2
2017-Feb-22 22:33N 38°32' E 121°12'10 9.7
2017-Feb-22 21:33N 38°35' E 121°23'10 9.9
2017-Feb-22 20:33N 38°37' E 121°35'9 9.3
2017-Feb-22 19:33N 38°43' E 121°45'1211.4
2017-Feb-22 18:30N 38°55' E 121°46'6 5.7
2017-Feb-22 17:31N 39°01' E 121°45'0 0.0
2017-Feb-22 16:28N 39°01' E 121°45'0 0.0
2017-Feb-22 15:31N 39°01' E 121°45'0 0.0
2017-Feb-22 14:25N 39°01' E 121°45'0 0.0
2017-Feb-22 13:31N 39°01' E 121°45'0 0.0
2017-Feb-22 12:28N 39°01' E 121°45'0 0.0
2017-Feb-22 11:28N 39°01' E 121°45'0 0.0
2017-Feb-22 10:28N 39°01' E 121°45'0 0.0
2017-Feb-22 09:31N 39°01' E 121°45'0 0.0
2017-Feb-22 08:28N 39°01' E 121°45'0 0.0
2017-Feb-22 07:31N 39°01' E 121°45'0 0.0
2017-Feb-22 06:31N 39°01' E 121°45'0 0.0
2017-Feb-22 05:31N 39°01' E 121°45'0 0.0
2017-Feb-22 04:31N 39°01' E 121°45'0 0.0
2017-Feb-22 03:28N 39°01' E 121°45'0 0.0
2017-Feb-22 02:31N 39°01' E 121°45'0 0.0
2017-Feb-22 01:28N 39°01' E 121°45'0 0.0
2017-Feb-22 00:31N 39°01' E 121°45'0 0.0
2017-Feb-21 23:31N 39°01' E 121°45'0 0.0
2017-Feb-21 22:31N 39°01' E 121°45'0 0.0
2017-Feb-21 21:31N 39°01' E 121°45'0 0.0
2017-Feb-21 20:31N 39°01' E 121°45'0 0.0
2017-Feb-21 19:31N 39°01' E 121°45'0 0.0
2017-Feb-21 18:31N 39°01' E 121°45'0 0.0
2017-Feb-21 17:31N 39°01' E 121°45'0 0.0
2017-Feb-21 16:31N 39°01' E 121°45'0 0.0
2017-Feb-21 15:28N 39°01' E 121°45'0 0.0
2017-Feb-21 14:31N 39°01' E 121°45'0 0.0
2017-Feb-21 13:25N 39°01' E 121°45'0 0.0
2017-Feb-21 12:28N 39°01' E 121°45'0 0.0
2017-Feb-21 11:31N 39°01' E 121°45'0 0.0
2017-Feb-21 10:31N 39°01' E 121°45'0 0.0
2017-Feb-21 09:31N 39°01' E 121°45'0 0.0
2017-Feb-21 08:31N 39°01' E 121°45'0 0.0
2017-Feb-21 07:28N 39°01' E 121°45'0 0.0
2017-Feb-21 06:16N 39°01' E 121°45'0 0.0
2017-Feb-21 05:25N 39°01' E 121°45'0 0.0
2017-Feb-21 04:31N 39°01' E 121°45'0 0.0
2017-Feb-21 03:28N 39°01' E 121°45'0 0.0
2017-Feb-21 02:31N 39°01' E 121°45'0 0.0
2017-Feb-21 01:25N 39°01' E 121°45'0 0.0
2017-Feb-21 00:28N 39°01' E 121°45'0 0.0
2017-Feb-20 23:28N 39°01' E 121°45'0 0.0
2017-Feb-20 22:28N 39°01' E 121°45'0 0.0
2017-Feb-20 21:31N 39°01' E 121°45'0 0.0
2017-Feb-20 20:28N 39°01' E 121°45'0 0.0
2017-Feb-20 19:28N 39°01' E 121°45'0 0.0
2017-Feb-20 18:28N 39°01' E 121°45'0 0.0
2017-Feb-20 17:31N 39°01' E 121°45'0 0.0
2017-Feb-20 16:31N 39°01' E 121°45'0 0.0
2017-Feb-20 15:25N 39°01' E 121°45'0 0.0
2017-Feb-20 14:28N 39°01' E 121°45'0 0.0
2017-Feb-20 13:31N 39°01' E 121°45'0 0.0
2017-Feb-20 12:33N 39°01' E 121°45'7 6.4
2017-Feb-20 11:30N 38°54' E 121°47'6 6.6
2017-Feb-20 10:33N 38°51' E 121°54'6 5.9
2017-Feb-20 09:33N 38°52' E 122°01'0 0.0
2017-Feb-20 07:09N 38°52' E 122°01'0 0.0
2017-Feb-20 06:27N 38°52' E 122°01'0 0.0
2017-Feb-20 05:27N 38°52' E 122°01'0 0.0
2017-Feb-20 04:24N 38°52' E 122°01'0 0.0
2017-Feb-20 03:27N 38°52' E 122°01'0 0.1
2017-Feb-20 02:33N 38°52' E 122°01'0 0.0
2017-Feb-20 01:27N 38°52' E 122°01'0 0.0
2017-Feb-20 00:27N 38°52' E 122°01'0 0.0
2017-Feb-19 23:27N 38°52' E 122°01'0 0.0
2017-Feb-19 22:27N 38°52' E 122°01'0 0.1
2017-Feb-19 21:33N 38°52' E 122°01'0 0.0
2017-Feb-19 20:21N 38°52' E 122°01'0 0.0
2017-Feb-19 18:27N 38°52' E 122°01'0 0.1
2017-Feb-19 17:33N 38°52' E 122°01'0 0.0
2017-Feb-19 16:33N 38°52' E 122°01'0 0.0
2017-Feb-19 14:15N 38°52' E 122°01'0 0.0
2017-Feb-19 07:30N 38°52' E 122°01'0 0.0
2017-Feb-19 06:33N 38°52' E 122°01'0 0.0
2017-Feb-19 05:15N 38°52' E 122°01'0 0.0
2017-Feb-19 03:27N 38°52' E 122°01'0 0.0
2017-Feb-19 02:27N 38°52' E 122°01'0 0.1
2017-Feb-19 01:33N 38°52' E 122°01'0 0.0
2017-Feb-19 00:27N 38°52' E 122°01'0 0.0
2017-Feb-18 23:33N 38°52' E 122°01'0 0.0
2017-Feb-18 11:25N 38°52' E 122°01'0 0.0
2017-Feb-18 09:10N 38°52' E 122°01'0 0.1
2017-Feb-18 08:28N 38°52' E 122°01'  

Dump ship's entire track history